Lakeside, NE (69351)

1:16 AM MST on February 09, 2016 (GMT -0700)
Bingham | | Change Station
CLOSE
Current Station
Personal Weather Station
Location: Bingham, NE
Elevation: 3901 ft
Nearby Weather Stations

Elev 3901 ft 42.02 °N, 102.09 °W | Updated 23 seconds ago

Partly Cloudy
Partly Cloudy
26.8 °F
Feels Like 27 °F
N
0.0
Wind Variable Wind from SSE
Gusts 0.0 mph

Today
High -- | Low -- °F
--% Chance of Precip.
Yesterday
High -- | Low -- °F
Precip. -- in
Pressure 30.25 in
Visibility 10.0 miles
Clouds Overcast 7000 ft
Windchill 27 °F
Dew Point 13 °F
Humidity 55%
Rainfall 0.00 in
Snow Depth Not available.
6:53 AM 5:14 PM
New Moon, 1% visible
METAR KAIA 090753Z AUTO 30012KT 10SM OVC070 02/M03 A3019 RMK AO2 SLP242 T00171028
Pressure 30.25 in
Visibility 10.0 miles
Clouds Overcast 7000 ft
Windchill 27 °F
Dew Point 13 °F
Humidity 55%
Rainfall 0.00 in
Snow Depth Not available.
6:53 AM 5:14 PM
New Moon, 1% visible
METAR KAIA 090753Z AUTO 30012KT 10SM OVC070 02/M03 A3019 RMK AO2 SLP242 T00171028

10-Day Weather Forecast

Almanac

Astronomy

Feb. 09, 2016 Rise Set
Actual Time
Civil Twilight
Nautical Twilight
Astronomical Twilight
Moon
Length of Visible Light
Length of Day
Tomorrow will be .
, % of the Moon is Illuminated

Today's Extremes

State Highs State Lows

Community

WunderPhotos

Upload Photos

1,891,571 photos uploaded!

WunderBlog® & News

Nearby

Air Quality

  Air Quality AQ Index Pollutant
Not available.

Snow Depth

Station Depth Elevation

Earthquake Activity

City Distance Mag. Time & Date
Minimum magnitude displayed is 2.5.

Coastal Water Temperatures

Place Temperature

Stations

Nearby Weather Stations

Station Location Temp. Windchill Dew Point Humidity Wind Precip. Elev Updated Type
                   

Watches & Warnings

There are currently no watches in effect.